createdAt,value
2019-01-18T00:00:00.255Z,48.3
2019-01-18T00:01:00.230Z,54.3
2019-01-18T00:02:00.229Z,60.3
2019-01-18T00:03:00.234Z,63.4
2019-01-18T00:04:00.247Z,63.4
2019-01-18T00:05:00.293Z,54.3
2019-01-18T00:06:00.211Z,60.3
2019-01-18T00:07:00.200Z,54.3
2019-01-18T00:08:00.220Z,54.3
2019-01-18T00:09:00.178Z,54.3
2019-01-18T00:10:00.267Z,57.3
2019-01-18T00:11:00.214Z,69.4
2019-01-18T00:12:00.211Z,69.4
2019-01-18T00:13:00.216Z,63.4
2019-01-18T00:14:00.237Z,60.3
2019-01-18T00:15:00.207Z,66.4
2019-01-18T00:16:00.195Z,63.4
2019-01-18T00:17:00.194Z,66.4
2019-01-18T00:18:00.219Z,60.3
2019-01-18T00:19:00.259Z,54.3
2019-01-18T00:20:00.237Z,54.3
2019-01-18T00:21:00.209Z,60.3
2019-01-18T00:22:01.392Z,66.4
2019-01-18T00:23:00.178Z,54.3
2019-01-18T00:24:00.200Z,69.4
2019-01-18T00:25:00.189Z,63.4
2019-01-18T00:26:00.231Z,54.3
2019-01-18T00:27:00.205Z,57.3
2019-01-18T00:28:00.208Z,57.3
2019-01-18T00:29:00.197Z,69.4
2019-01-18T00:30:00.219Z,48.3
2019-01-18T00:31:00.228Z,51.3
2019-01-18T00:32:00.208Z,42.3
2019-01-18T00:33:00.202Z,45.3
2019-01-18T00:34:00.203Z,48.3
2019-01-18T00:35:00.270Z,51.3
2019-01-18T00:36:00.157Z,48.3
2019-01-18T00:37:00.168Z,45.3
2019-01-18T00:38:00.231Z,63.4
2019-01-18T00:39:00.203Z,63.4
2019-01-18T00:40:00.232Z,72.4
2019-01-18T00:41:00.199Z,57.3
2019-01-18T00:42:00.229Z,75.4
2019-01-18T00:43:00.263Z,60.3
2019-01-18T00:44:00.197Z,69.4
2019-01-18T00:45:00.282Z,69.4
2019-01-18T00:46:00.192Z,51.3
2019-01-18T00:47:00.168Z,66.4
2019-01-18T00:48:00.258Z,60.3
2019-01-18T00:49:00.209Z,66.4
2019-01-18T00:50:00.321Z,60.3
2019-01-18T00:51:00.187Z,66.4
2019-01-18T00:52:00.181Z,66.4
2019-01-18T00:53:00.238Z,60.3
2019-01-18T00:54:00.203Z,60.3
2019-01-18T00:55:00.198Z,63.4
2019-01-18T00:56:00.190Z,72.4
2019-01-18T00:57:00.195Z,60.3
2019-01-18T00:58:00.225Z,60.3
2019-01-18T00:59:00.191Z,75.4
2019-01-18T01:00:00.244Z,72.4
2019-01-18T01:01:00.202Z,75.4
2019-01-18T01:02:00.176Z,69.4
2019-01-18T01:03:00.215Z,87.4
2019-01-18T01:04:00.149Z,84.4
2019-01-18T01:05:00.206Z,81.4
2019-01-18T01:06:00.182Z,72.4
2019-01-18T01:07:00.181Z,69.4
2019-01-18T01:08:00.232Z,75.4
2019-01-18T01:09:00.203Z,69.4
2019-01-18T01:10:00.207Z,72.4
2019-01-18T01:11:00.245Z,81.4
2019-01-18T01:12:00.218Z,75.4
2019-01-18T01:13:00.185Z,81.4
2019-01-18T01:14:00.174Z,81.4
2019-01-18T01:15:00.211Z,75.4
2019-01-18T01:16:00.228Z,69.4
2019-01-18T01:17:00.181Z,66.4
2019-01-18T01:18:00.178Z,75.4
2019-01-18T01:19:00.181Z,60.3
2019-01-18T01:20:00.220Z,78.4
2019-01-18T01:21:00.185Z,69.4
2019-01-18T01:22:00.172Z,60.3
2019-01-18T01:23:00.264Z,72.4
2019-01-18T01:24:00.171Z,75.4
2019-01-18T01:25:00.206Z,75.4
2019-01-18T01:26:00.140Z,75.4
2019-01-18T01:27:00.236Z,69.4
2019-01-18T01:28:00.186Z,81.4
2019-01-18T01:29:00.177Z,78.4
2019-01-18T01:30:00.221Z,87.4
2019-01-18T01:31:00.158Z,66.4
2019-01-18T01:32:00.228Z,72.4
2019-01-18T01:33:00.185Z,72.4
2019-01-18T01:34:00.230Z,78.4
2019-01-18T01:35:00.183Z,78.4
2019-01-18T01:36:00.218Z,69.4
2019-01-18T01:37:00.133Z,81.4
2019-01-18T01:38:00.316Z,69.4
2019-01-18T01:39:00.173Z,57.3
2019-01-18T01:40:00.217Z,63.4
2019-01-18T01:41:00.161Z,66.4
2019-01-18T01:42:00.138Z,69.4
2019-01-18T01:43:00.220Z,69.4
2019-01-18T01:44:00.168Z,81.4
2019-01-18T01:45:00.252Z,81.4
2019-01-18T01:46:00.175Z,75.4
2019-01-18T01:47:00.132Z,72.4
2019-01-18T01:48:00.212Z,87.4
2019-01-18T01:49:00.157Z,69.4
2019-01-18T01:50:00.176Z,81.4
2019-01-18T01:51:00.164Z,75.4
2019-01-18T01:52:00.251Z,78.4
2019-01-18T01:53:00.137Z,69.4
2019-01-18T01:54:00.164Z,69.4
2019-01-18T01:55:00.238Z,66.4
2019-01-18T01:56:00.152Z,63.4
2019-01-18T01:57:00.231Z,63.4
2019-01-18T01:58:00.149Z,72.4
2019-01-18T01:59:00.194Z,60.3
2019-01-18T02:00:00.167Z,60.3
2019-01-18T02:01:00.237Z,60.3
2019-01-18T02:02:00.168Z,81.4
2019-01-18T02:03:00.142Z,72.4
2019-01-18T02:04:00.125Z,66.4
2019-01-18T02:05:00.165Z,66.4
2019-01-18T02:06:00.207Z,63.4
2019-01-18T02:07:00.147Z,54.3
2019-01-18T02:08:00.150Z,60.3
2019-01-18T02:09:00.146Z,63.4
2019-01-18T02:10:00.205Z,60.3
2019-01-18T02:11:00.232Z,60.3
2019-01-18T02:12:00.154Z,57.3
2019-01-18T02:13:00.152Z,51.3
2019-01-18T02:14:00.173Z,51.3
2019-01-18T02:15:00.172Z,60.3
2019-01-18T02:16:00.170Z,60.3
2019-01-18T02:17:00.164Z,63.4
2019-01-18T02:18:00.164Z,54.3
2019-01-18T02:19:00.229Z,60.3
2019-01-18T02:20:00.123Z,60.3
2019-01-18T02:21:00.160Z,60.3
2019-01-18T02:22:00.218Z,69.4
2019-01-18T02:23:00.160Z,54.3
2019-01-18T02:24:00.153Z,63.4
2019-01-18T02:25:00.168Z,60.3
2019-01-18T02:26:00.194Z,45.3
2019-01-18T02:27:00.136Z,54.3
2019-01-18T02:28:00.231Z,54.3
2019-01-18T02:29:00.140Z,60.3
2019-01-18T02:30:00.269Z,57.3
2019-01-18T02:31:00.111Z,66.4
2019-01-18T02:32:00.146Z,66.4
2019-01-18T02:33:00.187Z,60.3
2019-01-18T02:34:00.180Z,69.4
2019-01-18T02:35:00.189Z,69.4
2019-01-18T02:36:00.113Z,75.4
2019-01-18T02:37:00.229Z,69.4
2019-01-18T02:38:00.168Z,66.4
2019-01-18T02:39:00.142Z,69.4
2019-01-18T02:40:00.295Z,60.3
2019-01-18T02:41:00.159Z,60.3
2019-01-18T02:42:00.132Z,75.4
2019-01-18T02:43:00.222Z,75.4
2019-01-18T02:44:00.201Z,69.4
2019-01-18T02:45:00.171Z,66.4
2019-01-18T02:46:00.208Z,63.4
2019-01-18T02:47:00.111Z,63.4
2019-01-18T02:48:00.145Z,81.4
2019-01-18T02:49:00.194Z,75.4
2019-01-18T02:50:00.224Z,93.5
2019-01-18T02:51:00.152Z,63.4
2019-01-18T02:52:00.104Z,78.4
2019-01-18T02:53:00.137Z,90.4
2019-01-18T02:54:00.186Z,84.4
2019-01-18T02:55:00.206Z,81.4
2019-01-18T02:56:00.104Z,66.4
2019-01-18T02:57:00.138Z,75.4
2019-01-18T02:58:00.176Z,75.4
2019-01-18T02:59:00.145Z,90.4
2019-01-18T03:00:06.097Z,81.4
2019-01-18T03:01:00.214Z,87.4
2019-01-18T03:02:00.118Z,81.4
2019-01-18T03:03:00.187Z,78.4
2019-01-18T03:04:00.106Z,60.3
2019-01-18T03:05:00.190Z,90.4
2019-01-18T03:06:00.140Z,87.4
2019-01-18T03:07:00.130Z,87.4
2019-01-18T03:08:00.203Z,81.4
2019-01-18T03:09:00.095Z,75.4
2019-01-18T03:10:00.176Z,78.4
2019-01-18T03:11:00.138Z,78.4
2019-01-18T03:12:00.127Z,84.4
2019-01-18T03:13:00.192Z,81.4
2019-01-18T03:14:00.097Z,75.4
2019-01-18T03:15:00.095Z,75.4
2019-01-18T03:16:00.189Z,75.4
2019-01-18T03:17:00.126Z,75.4
2019-01-18T03:18:00.132Z,81.4
2019-01-18T03:19:00.122Z,75.4
2019-01-18T03:20:00.119Z,75.4
2019-01-18T03:21:00.191Z,75.4
2019-01-18T03:22:00.123Z,66.4
2019-01-18T03:23:00.138Z,75.4
2019-01-18T03:24:00.171Z,96.5
2019-01-18T03:25:00.128Z,102.5
2019-01-18T03:26:00.084Z,87.4
2019-01-18T03:27:00.124Z,90.4
2019-01-18T03:28:00.215Z,93.5
2019-01-18T03:29:00.124Z,90.4
2019-01-18T03:30:00.226Z,93.5
2019-01-18T03:31:00.082Z,84.4
2019-01-18T03:32:00.142Z,84.4
2019-01-18T03:33:00.190Z,75.4
2019-01-18T03:34:00.141Z,72.4
2019-01-18T03:35:00.211Z,81.4
2019-01-18T03:36:00.110Z,81.4
2019-01-18T03:37:00.115Z,69.4
2019-01-18T03:38:00.140Z,78.4
2019-01-18T03:39:00.108Z,78.4
2019-01-18T03:40:00.221Z,87.4
2019-01-18T03:41:00.114Z,78.4
2019-01-18T03:42:00.075Z,78.4
2019-01-18T03:43:00.107Z,72.4
2019-01-18T03:44:00.106Z,81.4
2019-01-18T03:45:00.203Z,78.4
2019-01-18T03:46:00.174Z,84.4
2019-01-18T03:47:00.075Z,99.5
2019-01-18T03:48:00.098Z,81.4
2019-01-18T03:49:00.109Z,87.4
2019-01-18T03:50:00.211Z,84.4
2019-01-18T03:51:00.174Z,96.5
2019-01-18T03:52:00.109Z,84.4
2019-01-18T03:53:00.074Z,87.4
2019-01-18T03:54:00.107Z,96.5
2019-01-18T03:55:00.217Z,84.4
2019-01-18T03:56:00.180Z,87.4
2019-01-18T03:57:00.093Z,81.4
2019-01-18T03:58:00.184Z,90.4
2019-01-18T03:59:00.095Z,87.4
2019-01-18T04:00:00.255Z,102.5
2019-01-18T04:01:00.107Z,99.5
2019-01-18T04:02:00.106Z,102.5
2019-01-18T04:03:00.082Z,99.5
2019-01-18T04:04:00.090Z,111.5
2019-01-18T04:05:00.256Z,111.5
2019-01-18T04:06:00.112Z,99.5
2019-01-18T04:07:00.098Z,84.4
2019-01-18T04:08:00.118Z,90.4
2019-01-18T04:09:00.066Z,81.4
2019-01-18T04:10:00.227Z,87.4
2019-01-18T04:11:00.106Z,75.4
2019-01-18T04:12:00.152Z,84.4
2019-01-18T04:13:00.103Z,72.4
2019-01-18T04:14:00.139Z,78.4
2019-01-18T04:15:00.184Z,81.4
2019-01-18T04:16:00.101Z,81.4
2019-01-18T04:17:00.095Z,75.4
2019-01-18T04:18:00.153Z,66.4
2019-01-18T04:19:00.113Z,69.4
2019-01-18T04:20:00.217Z,69.4
2019-01-18T04:21:00.083Z,72.4
2019-01-18T04:22:00.167Z,66.4
2019-01-18T04:23:00.153Z,60.3
2019-01-18T04:24:00.103Z,69.4
2019-01-18T04:25:00.259Z,75.4
2019-01-18T04:26:00.154Z,66.4
2019-01-18T04:27:00.164Z,75.4
2019-01-18T04:28:00.106Z,69.4
2019-01-18T04:29:00.103Z,75.4
2019-01-18T04:30:00.233Z,84.4
2019-01-18T04:31:00.135Z,81.4
2019-01-18T04:32:00.093Z,78.4
2019-01-18T04:33:00.098Z,75.4
2019-01-18T04:34:00.108Z,81.4
2019-01-18T04:35:00.269Z,69.4
2019-01-18T04:36:00.057Z,78.4
2019-01-18T04:37:00.090Z,81.4
2019-01-18T04:38:00.085Z,84.4
2019-01-18T04:39:00.101Z,81.4
2019-01-18T04:40:00.275Z,75.4
2019-01-18T04:41:00.406Z,78.4
2019-01-18T04:42:00.087Z,81.4
2019-01-18T04:43:00.096Z,81.4
2019-01-18T04:44:00.179Z,78.4
2019-01-18T04:45:08.201Z,78.4
2019-01-18T04:46:08.124Z,81.4
2019-01-18T04:47:08.094Z,87.4
2019-01-18T04:48:08.126Z,84.4
2019-01-18T04:49:08.111Z,72.4
2019-01-18T04:50:08.190Z,75.4
2019-01-18T04:51:08.136Z,69.4
2019-01-18T04:52:08.162Z,75.4
2019-01-18T04:53:08.101Z,81.4
2019-01-18T04:54:08.105Z,81.4
2019-01-18T04:55:08.180Z,78.4
2019-01-18T04:56:08.174Z,87.4
2019-01-18T04:57:08.122Z,72.4
2019-01-18T04:58:08.075Z,69.4
2019-01-18T04:59:08.101Z,93.5
2019-01-18T05:00:08.094Z,81.4
2019-01-18T05:01:08.180Z,72.4
2019-01-18T05:02:08.170Z,66.4
2019-01-18T05:03:08.095Z,72.4
2019-01-18T05:04:08.101Z,69.4
2019-01-18T05:05:08.115Z,87.4
2019-01-18T05:06:08.163Z,78.4
2019-01-18T05:07:08.113Z,78.4
2019-01-18T05:08:08.106Z,78.4
2019-01-18T05:09:08.232Z,81.4
2019-01-18T05:10:08.103Z,90.4
2019-01-18T05:11:08.112Z,81.4
2019-01-18T05:12:08.093Z,81.4
2019-01-18T05:13:08.107Z,66.4
2019-01-18T05:14:08.133Z,60.3
2019-01-18T05:15:08.100Z,63.4
2019-01-18T05:16:08.160Z,60.3
2019-01-18T05:17:08.163Z,63.4
2019-01-18T05:18:08.175Z,75.4
2019-01-18T05:19:08.125Z,72.4
2019-01-18T05:20:08.087Z,60.3
2019-01-18T05:21:08.106Z,69.4
2019-01-18T05:22:08.186Z,66.4
2019-01-18T05:23:08.064Z,63.4
2019-01-18T05:24:08.130Z,66.4
2019-01-18T05:25:08.071Z,57.3
2019-01-18T05:26:08.102Z,51.3
2019-01-18T05:27:08.159Z,54.3
2019-01-18T05:28:08.079Z,60.3
2019-01-18T05:29:08.157Z,57.3
2019-01-18T05:30:08.076Z,57.3
2019-01-18T05:31:08.078Z,66.4
2019-01-18T05:32:08.062Z,63.4
2019-01-18T05:33:08.107Z,54.3
2019-01-18T05:34:08.183Z,60.3
2019-01-18T05:35:08.108Z,69.4
2019-01-18T05:36:08.118Z,69.4
2019-01-18T05:37:08.094Z,60.3
2019-01-18T05:38:08.107Z,63.4
2019-01-18T05:39:08.095Z,60.3
2019-01-18T05:40:08.082Z,63.4
2019-01-18T05:41:08.114Z,60.3
2019-01-18T05:42:08.076Z,51.3
2019-01-18T05:43:08.104Z,54.3
2019-01-18T05:44:08.145Z,54.3
2019-01-18T05:45:08.078Z,54.3
2019-01-18T05:46:08.170Z,63.4
2019-01-18T05:47:08.059Z,51.3
2019-01-18T05:48:08.145Z,54.3
2019-01-18T05:49:08.152Z,60.3
2019-01-18T05:50:08.092Z,63.4
2019-01-18T05:51:08.273Z,63.4
2019-01-18T05:52:08.058Z,63.4
2019-01-18T05:53:08.056Z,54.3
2019-01-18T05:54:08.095Z,54.3
2019-01-18T05:55:08.097Z,60.3
2019-01-18T05:56:08.152Z,60.3
2019-01-18T05:57:08.087Z,57.3
2019-01-18T05:58:08.073Z,57.3
2019-01-18T05:59:08.071Z,54.3
2019-01-18T06:00:08.096Z,60.3
2019-01-18T06:01:08.139Z,54.3
2019-01-18T06:02:08.169Z,51.3
2019-01-18T06:03:08.048Z,51.3
2019-01-18T06:04:08.149Z,66.4
2019-01-18T06:05:08.099Z,66.4
2019-01-18T06:06:08.079Z,54.3
2019-01-18T06:07:08.080Z,51.3
2019-01-18T06:08:09.176Z,48.3
2019-01-18T06:09:08.068Z,51.3
2019-01-18T06:10:08.085Z,54.3
2019-01-18T06:11:08.070Z,54.3
2019-01-18T06:12:08.078Z,51.3
2019-01-18T06:13:08.124Z,48.3
2019-01-18T06:14:08.052Z,45.3
2019-01-18T06:15:08.073Z,54.3
2019-01-18T06:16:08.078Z,54.3
2019-01-18T06:17:08.153Z,63.4
2019-01-18T06:18:08.058Z,48.3
2019-01-18T06:19:08.126Z,48.3
2019-01-18T06:20:08.076Z,48.3
2019-01-18T06:21:08.091Z,36.3
2019-01-18T06:22:08.072Z,51.3
2019-01-18T06:23:08.087Z,39.3
2019-01-18T06:24:08.127Z,39.3
2019-01-18T06:25:08.035Z,42.3
2019-01-18T06:26:08.070Z,39.3
2019-01-18T06:27:08.130Z,33.3
2019-01-18T06:28:08.164Z,39.3
2019-01-18T06:29:08.144Z,48.3
2019-01-18T06:30:08.042Z,51.3
2019-01-18T06:31:08.021Z,36.3
2019-01-18T06:32:08.067Z,45.3
2019-01-18T06:33:08.149Z,42.3
2019-01-18T06:34:08.066Z,39.3
2019-01-18T06:35:08.093Z,36.3
2019-01-18T06:36:08.043Z,33.3
2019-01-18T06:37:08.059Z,39.3
2019-01-18T06:38:08.148Z,39.3
2019-01-18T06:39:08.073Z,39.3
2019-01-18T06:40:08.065Z,36.3
2019-01-18T06:41:08.035Z,36.3
2019-01-18T06:42:08.069Z,36.3
2019-01-18T06:43:08.122Z,36.3
2019-01-18T06:44:08.050Z,39.3
2019-01-18T06:45:08.075Z,42.3
2019-01-18T06:46:08.135Z,33.3
2019-01-18T06:47:08.034Z,27.3
2019-01-18T06:48:08.156Z,30.3
2019-01-18T06:49:08.132Z,36.3
2019-01-18T06:50:08.131Z,24.3
2019-01-18T06:51:08.057Z,21.3
2019-01-18T06:52:08.023Z,18.3
2019-01-18T06:53:08.082Z,15.4
2019-01-18T06:54:08.129Z,18.3
2019-01-18T06:55:08.054Z,27.3
2019-01-18T06:56:08.059Z,18.3
2019-01-18T06:57:08.061Z,18.3
2019-01-18T06:58:08.076Z,9.5
2019-01-18T06:59:08.058Z,15.4
2019-01-18T07:00:08.127Z,9.5
2019-01-18T07:01:09.875Z,12.4
2019-01-18T07:02:08.045Z,6.6
2019-01-18T07:03:08.080Z,15.4
2019-01-18T07:04:08.053Z,9.5
2019-01-18T07:05:08.059Z,9.5
2019-01-18T07:06:08.050Z,12.4
2019-01-18T07:07:08.056Z,15.4
2019-01-18T07:08:08.090Z,15.4
2019-01-18T07:09:08.002Z,6.6
2019-01-18T07:10:08.044Z,12.4
2019-01-18T07:11:08.058Z,3.9
2019-01-18T07:12:08.065Z,6.6
2019-01-18T07:13:08.127Z,9.5
2019-01-18T07:14:08.021Z,12.4
2019-01-18T07:15:08.052Z,12.4
2019-01-18T07:16:08.050Z,15.4
2019-01-18T07:17:08.117Z,21.3
2019-01-18T07:18:08.053Z,24.3
2019-01-18T07:19:08.014Z,18.3
2019-01-18T07:20:08.042Z,21.3
2019-01-18T07:21:08.085Z,21.3
2019-01-18T07:22:08.114Z,21.3
2019-01-18T07:23:08.087Z,21.3
2019-01-18T07:24:08.036Z,21.3
2019-01-18T07:25:08.010Z,18.3
2019-01-18T07:26:08.103Z,27.3
2019-01-18T07:27:08.039Z,24.3
2019-01-18T07:28:08.047Z,27.3
2019-01-18T07:29:08.107Z,27.3
2019-01-18T07:30:08.081Z,24.3
2019-01-18T07:31:08.025Z,30.3
2019-01-18T07:32:08.047Z,21.3
2019-01-18T07:33:08.041Z,21.3
2019-01-18T07:34:08.047Z,21.3
2019-01-18T07:35:08.515Z,18.3
2019-01-18T07:36:08.003Z,18.3
2019-01-18T07:37:08.038Z,18.3
2019-01-18T07:38:08.036Z,15.4
2019-01-18T07:39:08.103Z,15.4
2019-01-18T07:40:08.049Z,12.4
2019-01-18T07:41:08.093Z,12.4
2019-01-18T07:42:08.008Z,15.4
2019-01-18T07:43:08.026Z,9.5
2019-01-18T07:44:08.108Z,9.5
2019-01-18T07:45:08.174Z,9.5
2019-01-18T07:46:08.034Z,12.4
2019-01-18T07:47:07.994Z,18.3
2019-01-18T07:48:08.045Z,9.5
2019-01-18T07:49:08.085Z,18.3
2019-01-18T07:50:08.091Z,12.4
2019-01-18T07:51:08.039Z,15.4
2019-01-18T07:52:08.014Z,18.3
2019-01-18T07:53:08.018Z,15.4
2019-01-18T07:54:08.108Z,27.3
2019-01-18T07:55:08.135Z,15.4
2019-01-18T07:56:08.032Z,18.3
2019-01-18T07:57:08.055Z,27.3
2019-01-18T07:58:07.997Z,27.3
2019-01-18T07:59:08.033Z,21.3
2019-01-18T08:00:08.090Z,27.3
2019-01-18T08:01:08.097Z,21.3
2019-01-18T08:02:08.035Z,33.3
2019-01-18T08:03:07.995Z,30.3
2019-01-18T08:04:08.085Z,33.3
2019-01-18T08:05:08.040Z,30.3
2019-01-18T08:06:08.056Z,33.3
2019-01-18T08:07:08.025Z,30.3
2019-01-18T08:08:08.005Z,36.3
2019-01-18T08:09:08.048Z,27.3
2019-01-18T08:10:08.032Z,33.3
2019-01-18T08:11:08.095Z,36.3
2019-01-18T08:12:08.026Z,30.3
2019-01-18T08:13:08.035Z,30.3
2019-01-18T08:14:07.997Z,30.3
2019-01-18T08:15:08.023Z,27.3
2019-01-18T08:16:08.094Z,30.3
2019-01-18T08:17:08.029Z,27.3
2019-01-18T08:18:08.018Z,24.3
2019-01-18T08:19:07.990Z,27.3
2019-01-18T08:20:08.009Z,27.3
2019-01-18T08:21:08.099Z,27.3
2019-01-18T08:22:08.091Z,24.3
2019-01-18T08:23:08.026Z,24.3
2019-01-18T08:24:07.997Z,21.3
2019-01-18T08:25:07.996Z,15.4
2019-01-18T08:26:08.084Z,12.4
2019-01-18T08:27:08.030Z,18.3
2019-01-18T08:28:08.011Z,6.6
2019-01-18T08:29:08.025Z,9.5
2019-01-18T08:30:07.988Z,6.6
2019-01-18T08:31:08.050Z,12.4
2019-01-18T08:32:08.114Z,9.5
2019-01-18T08:33:08.016Z,18.3
2019-01-18T08:34:08.037Z,6.6
2019-01-18T08:35:08.013Z,18.3
2019-01-18T08:36:08.041Z,15.4
2019-01-18T08:37:08.040Z,15.4
2019-01-18T08:38:08.085Z,21.3
2019-01-18T08:39:08.017Z,15.4
2019-01-18T08:40:08.022Z,27.3
2019-01-18T08:41:08.012Z,18.3
2019-01-18T08:42:08.078Z,18.3
2019-01-18T08:43:08.099Z,15.4
2019-01-18T08:44:08.029Z,18.3
2019-01-18T08:45:08.017Z,18.3
2019-01-18T08:46:08.016Z,12.4
2019-01-18T08:47:08.068Z,24.3
2019-01-18T08:48:08.022Z,18.3
2019-01-18T08:49:08.027Z,15.4
2019-01-18T08:50:08.087Z,15.4
2019-01-18T08:51:08.020Z,18.3
2019-01-18T08:52:07.981Z,21.3
2019-01-18T08:53:08.031Z,21.3
2019-01-18T08:54:08.081Z,27.3
2019-01-18T08:55:08.019Z,24.3
2019-01-18T08:56:08.012Z,18.3
2019-01-18T08:57:08.033Z,21.3
2019-01-18T08:58:07.986Z,12.4
2019-01-18T08:59:08.069Z,18.3
2019-01-18T09:00:08.048Z,27.3
2019-01-18T09:01:08.011Z,15.4
2019-01-18T09:02:08.018Z,9.5
2019-01-18T09:03:07.987Z,9.5
2019-01-18T09:04:08.202Z,6.6
2019-01-18T09:05:08.760Z,27.3
2019-01-18T09:06:08.016Z,12.4
2019-01-18T09:07:08.019Z,15.4
2019-01-18T09:08:07.981Z,18.3
2019-01-18T09:09:08.057Z,9.5
2019-01-18T09:10:08.008Z,18.3
2019-01-18T09:11:08.134Z,27.3
2019-01-18T09:12:08.018Z,12.4
2019-01-18T09:13:08.007Z,18.3
2019-01-18T09:14:07.989Z,9.5
2019-01-18T09:15:08.082Z,21.3
2019-01-18T09:16:08.067Z,24.3
2019-01-18T09:17:08.093Z,18.3
2019-01-18T09:18:08.012Z,21.3
2019-01-18T09:19:07.998Z,33.3
2019-01-18T09:20:08.090Z,30.3
2019-01-18T09:21:08.026Z,24.3
2019-01-18T09:22:08.004Z,27.3
2019-01-18T09:23:08.081Z,24.3
2019-01-18T09:24:08.007Z,24.3
2019-01-18T09:25:08.050Z,21.3
2019-01-18T09:26:08.093Z,24.3
2019-01-18T09:27:08.006Z,18.3
2019-01-18T09:28:08.030Z,18.3
2019-01-18T09:29:08.027Z,24.3
2019-01-18T09:30:07.982Z,18.3
2019-01-18T09:31:08.075Z,21.3
2019-01-18T09:32:08.025Z,15.4
2019-01-18T09:33:08.100Z,21.3
2019-01-18T09:34:08.008Z,15.4
2019-01-18T09:35:08.006Z,6.6
2019-01-18T09:36:08.054Z,15.4
2019-01-18T09:37:08.027Z,9.5
2019-01-18T09:38:08.080Z,18.3
2019-01-18T09:39:08.031Z,12.4
2019-01-18T09:40:08.027Z,24.3
2019-01-18T09:41:08.037Z,21.3
2019-01-18T09:42:08.108Z,15.4
2019-01-18T09:43:08.144Z,9.5
2019-01-18T09:44:08.014Z,12.4
2019-01-18T09:45:08.015Z,12.4
2019-01-18T09:46:08.025Z,21.3
2019-01-18T09:47:07.990Z,21.3
2019-01-18T09:48:08.080Z,24.3
2019-01-18T09:49:08.015Z,21.3
2019-01-18T09:50:08.008Z,36.3
2019-01-18T09:51:08.030Z,30.3
2019-01-18T09:52:07.971Z,24.3
2019-01-18T09:53:08.096Z,33.3
2019-01-18T09:54:08.023Z,27.3
2019-01-18T09:55:08.014Z,27.3
2019-01-18T09:56:08.005Z,24.3
2019-01-18T09:57:08.107Z,30.3
2019-01-18T09:58:07.995Z,24.3
2019-01-18T09:59:08.005Z,21.3
2019-01-18T10:00:08.015Z,36.3
2019-01-18T10:01:08.021Z,21.3
2019-01-18T10:02:08.078Z,18.3
2019-01-18T10:03:08.064Z,21.3
2019-01-18T10:04:08.027Z,18.3
2019-01-18T10:05:08.028Z,18.3
2019-01-18T10:06:08.012Z,18.3
2019-01-18T10:07:08.002Z,24.3
2019-01-18T10:08:08.068Z,12.4
2019-01-18T10:09:07.979Z,24.3
2019-01-18T10:10:08.016Z,15.4
2019-01-18T10:11:08.060Z,27.3
2019-01-18T10:12:08.022Z,24.3
2019-01-18T10:13:08.070Z,12.4
2019-01-18T10:14:07.995Z,24.3
2019-01-18T10:15:08.083Z,21.3
2019-01-18T10:16:08.009Z,24.3
2019-01-18T10:17:08.006Z,27.3
2019-01-18T10:18:08.075Z,33.3
2019-01-18T10:19:07.990Z,36.3
2019-01-18T10:20:07.986Z,33.3
2019-01-18T10:21:08.025Z,33.3
2019-01-18T10:22:08.138Z,36.3
2019-01-18T10:23:08.022Z,33.3
2019-01-18T10:24:08.006Z,36.3
2019-01-18T10:25:07.983Z,36.3
2019-01-18T10:26:08.082Z,39.3
2019-01-18T10:27:08.021Z,36.3
2019-01-18T10:28:08.012Z,36.3
2019-01-18T10:29:08.030Z,33.3
2019-01-18T10:30:07.980Z,39.3
2019-01-18T10:31:08.099Z,36.3
2019-01-18T10:32:08.019Z,39.3
2019-01-18T10:33:08.029Z,30.3
2019-01-18T10:34:08.086Z,33.3
2019-01-18T10:35:08.021Z,36.3
2019-01-18T10:36:08.063Z,39.3
2019-01-18T10:37:08.029Z,36.3
2019-01-18T10:38:08.027Z,36.3
2019-01-18T10:39:08.069Z,36.3
2019-01-18T10:40:08.029Z,33.3
2019-01-18T10:41:08.069Z,45.3
2019-01-18T10:42:08.028Z,42.3
2019-01-18T10:43:08.019Z,42.3
2019-01-18T10:44:08.031Z,39.3
2019-01-18T10:45:08.020Z,39.3
2019-01-18T10:46:08.079Z,36.3
2019-01-18T10:47:08.070Z,45.3
2019-01-18T10:48:08.077Z,42.3
2019-01-18T10:49:08.026Z,45.3
2019-01-18T10:50:08.044Z,42.3
2019-01-18T10:51:08.039Z,39.3
2019-01-18T10:52:08.097Z,39.3
2019-01-18T10:53:08.036Z,30.3
2019-01-18T10:54:08.030Z,36.3
2019-01-18T10:55:08.082Z,33.3
2019-01-18T10:56:08.100Z,27.3
2019-01-18T10:57:07.986Z,33.3
2019-01-18T10:58:08.031Z,24.3
2019-01-18T10:59:08.049Z,36.3
2019-01-18T11:00:08.084Z,27.3
2019-01-18T11:01:08.016Z,33.3
2019-01-18T11:02:08.560Z,33.3
2019-01-18T11:03:09.065Z,27.3
2019-01-18T11:04:08.025Z,39.3
2019-01-18T11:05:08.029Z,36.3
2019-01-18T11:06:08.075Z,39.3
2019-01-18T11:07:08.018Z,39.3
2019-01-18T11:08:08.101Z,36.3
2019-01-18T11:09:07.992Z,39.3
2019-01-18T11:10:08.023Z,39.3
2019-01-18T11:11:08.013Z,39.3
2019-01-18T11:12:08.006Z,36.3
2019-01-18T11:13:08.086Z,42.3
2019-01-18T11:14:07.990Z,42.3
2019-01-18T11:15:08.010Z,36.3
2019-01-18T11:16:08.027Z,45.3
2019-01-18T11:17:08.098Z,45.3
2019-01-18T11:18:08.014Z,30.3
2019-01-18T11:19:07.989Z,36.3
2019-01-18T11:20:08.023Z,33.3
2019-01-18T11:21:08.003Z,30.3
2019-01-18T11:22:08.083Z,33.3
2019-01-18T11:23:08.003Z,33.3
2019-01-18T11:24:08.026Z,42.3
2019-01-18T11:25:08.036Z,39.3
2019-01-18T11:26:08.008Z,27.3
2019-01-18T11:27:08.008Z,27.3
2019-01-18T11:28:08.011Z,24.3
2019-01-18T11:29:08.082Z,27.3
2019-01-18T11:30:07.987Z,36.3
2019-01-18T11:31:08.043Z,36.3
2019-01-18T11:32:13.544Z,42.3
2019-01-18T11:33:08.088Z,36.3
2019-01-18T11:34:08.088Z,36.3
2019-01-18T11:35:08.021Z,36.3
2019-01-18T11:36:08.000Z,36.3
2019-01-18T11:37:08.075Z,36.3
2019-01-18T11:38:08.034Z,30.3
2019-01-18T11:39:08.075Z,33.3
2019-01-18T11:40:08.026Z,30.3
2019-01-18T11:41:07.985Z,36.3
2019-01-18T11:42:08.015Z,30.3
2019-01-18T11:43:08.084Z,33.3
2019-01-18T11:44:08.014Z,30.3
2019-01-18T11:45:08.019Z,24.3
2019-01-18T11:46:08.054Z,33.3
2019-01-18T11:47:07.998Z,33.3
2019-01-18T11:48:09.636Z,27.3
2019-01-18T11:49:08.044Z,21.3
2019-01-18T11:50:08.065Z,21.3
2019-01-18T11:51:08.010Z,18.3
2019-01-18T11:52:07.975Z,27.3
2019-01-18T11:53:08.008Z,27.3
2019-01-18T11:54:08.090Z,24.3
2019-01-18T11:55:08.032Z,21.3
2019-01-18T11:56:08.004Z,27.3
2019-01-18T11:57:08.062Z,24.3
2019-01-18T11:58:07.992Z,27.3
2019-01-18T11:59:08.051Z,24.3
2019-01-18T12:00:07.974Z,30.3
2019-01-18T12:01:08.047Z,30.3
2019-01-18T12:02:07.980Z,27.3
2019-01-18T12:03:07.982Z,27.3
2019-01-18T12:04:07.972Z,27.3
2019-01-18T12:05:08.245Z,24.3
2019-01-18T12:06:08.042Z,24.3
2019-01-18T12:07:07.976Z,18.3
2019-01-18T12:08:08.014Z,15.4
2019-01-18T12:09:08.024Z,21.3
2019-01-18T12:10:10.668Z,12.4
2019-01-18T12:11:07.972Z,21.3
2019-01-18T12:12:08.051Z,9.5
2019-01-18T12:13:08.005Z,18.3
2019-01-18T12:14:11.923Z,21.3
2019-01-18T12:15:08.087Z,21.3
2019-01-18T12:16:08.004Z,18.3
2019-01-18T12:17:08.076Z,24.3
2019-01-18T12:18:08.006Z,12.4
2019-01-18T12:19:08.019Z,6.6
2019-01-18T12:20:08.179Z,15.4
2019-01-18T12:21:08.076Z,12.4
2019-01-18T12:22:07.998Z,12.4
2019-01-18T12:23:08.008Z,27.3
2019-01-18T12:24:08.026Z,21.3
2019-01-18T12:25:07.984Z,12.4
2019-01-18T12:26:08.082Z,9.5
2019-01-18T12:27:08.029Z,18.3
2019-01-18T12:28:08.021Z,30.3
2019-01-18T12:29:08.017Z,21.3
2019-01-18T12:30:07.986Z,27.3
2019-01-18T12:31:08.082Z,24.3
2019-01-18T12:32:08.085Z,30.3
2019-01-18T12:33:08.007Z,24.3
2019-01-18T12:34:08.016Z,21.3
2019-01-18T12:35:08.055Z,27.3
2019-01-18T12:36:07.990Z,21.3
2019-01-18T12:37:08.031Z,30.3
2019-01-18T12:38:08.027Z,24.3
2019-01-18T12:39:08.083Z,21.3
2019-01-18T12:40:08.075Z,24.3
2019-01-18T12:41:07.986Z,15.4
2019-01-18T12:42:08.015Z,18.3
2019-01-18T12:43:08.090Z,21.3
2019-01-18T12:44:08.003Z,18.3
2019-01-18T12:45:08.021Z,24.3
2019-01-18T12:46:08.049Z,18.3
2019-01-18T12:47:08.008Z,6.6
2019-01-18T12:48:08.025Z,12.4
2019-01-18T12:49:08.065Z,12.4
2019-01-18T12:50:08.099Z,9.5
2019-01-18T12:51:08.068Z,12.4
2019-01-18T12:52:07.974Z,21.3
2019-01-18T12:53:08.024Z,24.3
2019-01-18T12:54:08.018Z,21.3
2019-01-18T12:55:07.998Z,27.3
2019-01-18T12:56:08.074Z,27.3
2019-01-18T12:57:07.986Z,21.3
2019-01-18T12:58:08.093Z,3.9
2019-01-18T12:59:07.999Z,9.5
2019-01-18T13:00:08.018Z,1.8
2019-01-18T13:01:08.056Z,6.6
2019-01-18T13:02:08.016Z,15.4
2019-01-18T13:03:08.048Z,15.4
2019-01-18T13:04:09.461Z,27.3
2019-01-18T13:05:08.020Z,21.3
2019-01-18T13:06:08.081Z,18.3
2019-01-18T13:07:08.012Z,18.3
2019-01-18T13:08:07.985Z,15.4
2019-01-18T13:09:07.994Z,15.4
2019-01-18T13:10:13.330Z,15.4
2019-01-18T13:11:08.100Z,24.3
2019-01-18T13:12:08.005Z,18.3
2019-01-18T13:13:08.004Z,12.4
2019-01-18T13:14:07.979Z,24.3
2019-01-18T13:15:07.991Z,15.4
2019-01-18T13:16:08.097Z,24.3
2019-01-18T13:17:08.004Z,27.3
2019-01-18T13:18:08.001Z,18.3
2019-01-18T13:19:07.966Z,15.4